createdAt,value
2019-03-06T00:01:50.898Z,9.67
2019-03-06T00:04:20.352Z,11.40
2019-03-06T00:06:49.893Z,11.53
2019-03-06T00:09:19.674Z,9.07
2019-03-06T00:11:49.924Z,10.00
2019-03-06T00:14:20.134Z,15.25
2019-03-06T00:16:50.164Z,11.37
2019-03-06T00:19:20.216Z,9.97
2019-03-06T00:21:50.309Z,10.53
2019-03-06T00:24:20.450Z,15.40
2019-03-06T00:26:50.558Z,12.30
2019-03-06T00:29:20.750Z,12.37
2019-03-06T00:31:50.794Z,12.05
2019-03-06T00:34:21.034Z,11.70
2019-03-06T00:36:52.093Z,10.17
2019-03-06T00:39:21.686Z,11.60
2019-03-06T00:41:51.363Z,10.80
2019-03-06T00:44:21.562Z,10.13
2019-03-06T00:46:51.594Z,15.47
2019-03-06T00:49:22.109Z,15.57
2019-03-06T00:51:51.938Z,14.10
2019-03-06T00:54:22.063Z,11.50
2019-03-06T00:56:52.148Z,14.67
2019-03-06T00:59:22.292Z,15.33
2019-03-06T01:01:52.500Z,14.65
2019-03-06T01:04:22.613Z,17.37
2019-03-06T01:06:52.964Z,16.60
2019-03-06T01:09:22.921Z,16.67
2019-03-06T01:11:52.905Z,14.23
2019-03-06T01:14:23.092Z,14.63
2019-03-06T01:16:53.263Z,20.47
2019-03-06T01:19:23.396Z,16.53
2019-03-06T01:21:56.516Z,16.73
2019-03-06T01:24:25.973Z,16.53
2019-03-06T01:26:58.065Z,18.83
2019-03-06T01:29:29.010Z,16.17
2019-03-06T01:31:58.447Z,16.93
2019-03-06T01:34:35.794Z,18.17
2019-03-06T01:37:09.728Z,16.27
2019-03-06T01:39:40.808Z,17.10
2019-03-06T01:42:11.902Z,16.37
2019-03-06T01:44:42.994Z,17.63
2019-03-06T01:47:12.423Z,17.67
2019-03-06T01:49:41.857Z,18.50
2019-03-06T01:52:11.306Z,16.50
2019-03-06T01:54:40.733Z,15.43
2019-03-06T01:57:10.248Z,16.70
2019-03-06T01:59:39.671Z,16.93
2019-03-06T02:02:09.416Z,15.07
2019-03-06T02:04:40.463Z,15.73
2019-03-06T02:07:10.409Z,16.77
2019-03-06T02:09:40.123Z,15.80
2019-03-06T02:12:10.635Z,13.80
2019-03-06T02:14:40.136Z,14.13
2019-03-06T02:17:09.594Z,15.83
2019-03-06T02:19:39.359Z,19.70
2019-03-06T02:22:08.902Z,14.93
2019-03-06T02:24:38.350Z,16.17
2019-03-06T02:27:07.808Z,16.77
2019-03-06T02:29:37.259Z,14.23
2019-03-06T02:32:06.792Z,16.73
2019-03-06T02:34:36.222Z,13.27
2019-03-06T02:37:08.672Z,14.17
2019-03-06T02:39:40.884Z,13.33
2019-03-06T02:42:10.355Z,18.60
2019-03-06T02:44:41.409Z,15.83
2019-03-06T02:47:10.881Z,14.97
2019-03-06T02:49:40.374Z,16.30
2019-03-06T02:52:09.826Z,18.93
2019-03-06T02:54:39.268Z,13.77
2019-03-06T02:57:08.785Z,18.13
2019-03-06T02:59:39.921Z,17.70
2019-03-06T03:02:11.027Z,16.17
2019-03-06T03:04:45.277Z,18.37
2019-03-06T03:07:14.715Z,16.40
2019-03-06T03:09:44.207Z,18.97
2019-03-06T03:12:15.278Z,17.47
2019-03-06T03:14:44.691Z,18.80
2019-03-06T03:17:14.223Z,17.00
2019-03-06T03:19:43.701Z,19.90
2019-03-06T03:22:14.804Z,19.00
2019-03-06T03:24:44.212Z,19.67
2019-03-06T03:27:13.664Z,21.40
2019-03-06T03:29:43.159Z,20.53
2019-03-06T03:32:12.620Z,21.43
2019-03-06T03:34:42.069Z,18.57
2019-03-06T03:37:11.504Z,21.27
2019-03-06T03:39:40.932Z,19.83
2019-03-06T03:42:10.470Z,19.70
2019-03-06T03:44:39.887Z,20.90
2019-03-06T03:47:09.402Z,20.40
2019-03-06T03:49:39.385Z,21.77
2019-03-06T03:52:08.830Z,20.13
2019-03-06T03:54:38.277Z,20.47
2019-03-06T03:57:07.720Z,21.13
2019-03-06T03:59:37.228Z,24.17
2019-03-06T04:02:06.663Z,20.87
2019-03-06T04:04:36.105Z,21.77
2019-03-06T04:07:05.617Z,20.73
2019-03-06T04:09:35.064Z,21.47
2019-03-06T04:12:04.485Z,22.90
2019-03-06T04:14:33.937Z,22.47
2019-03-06T04:17:03.451Z,22.70
2019-03-06T04:19:33.284Z,23.63
2019-03-06T04:22:03.386Z,23.30
2019-03-06T04:24:33.508Z,22.17
2019-03-06T04:27:03.621Z,22.23
2019-03-06T04:29:33.885Z,22.85
2019-03-06T04:32:04.080Z,21.73
2019-03-06T04:34:35.714Z,22.87
2019-03-06T04:37:05.163Z,22.10
2019-03-06T04:39:36.573Z,24.87
2019-03-06T04:42:05.671Z,22.50
2019-03-06T04:44:35.091Z,23.07
2019-03-06T04:47:04.754Z,24.07
2019-03-06T04:49:34.835Z,25.30
2019-03-06T04:52:04.977Z,23.90
2019-03-06T04:54:35.185Z,23.07
2019-03-06T04:57:05.412Z,23.20
2019-03-06T04:59:35.440Z,23.37
2019-03-06T05:02:05.758Z,24.32
2019-03-06T05:04:38.159Z,23.47
2019-03-06T05:07:07.618Z,23.23
2019-03-06T05:09:37.068Z,23.93
2019-03-06T05:12:06.594Z,22.83
2019-03-06T05:14:36.958Z,21.83
2019-03-06T05:17:08.900Z,23.30
2019-03-06T05:19:38.514Z,23.70
2019-03-06T05:22:08.169Z,21.43
2019-03-06T05:24:37.631Z,22.57
2019-03-06T05:27:07.779Z,21.60
2019-03-06T05:29:37.846Z,20.23
2019-03-06T05:32:33.738Z,20.47
2019-03-06T05:35:12.261Z,22.53
2019-03-06T05:38:12.020Z,21.17
2019-03-06T05:40:41.539Z,22.53
2019-03-06T05:43:11.319Z,22.80
2019-03-06T05:45:40.758Z,22.90
2019-03-06T05:48:10.218Z,21.10
2019-03-06T05:50:42.180Z,20.63
2019-03-06T05:53:11.638Z,22.57
2019-03-06T05:55:41.094Z,20.00
2019-03-06T05:58:10.850Z,20.27
2019-03-06T06:00:40.282Z,20.63
2019-03-06T06:03:10.262Z,19.07
2019-03-06T06:05:40.246Z,20.57
2019-03-06T06:08:10.343Z,20.17
2019-03-06T06:10:40.454Z,20.13
2019-03-06T06:13:10.574Z,20.03
2019-03-06T06:15:40.894Z,18.67
2019-03-06T06:18:10.811Z,17.53
2019-03-06T06:20:41.024Z,18.23
2019-03-06T06:23:28.976Z,18.57
2019-03-06T06:25:58.425Z,16.70
2019-03-06T06:28:27.849Z,16.73
2019-03-06T06:30:57.231Z,19.03
2019-03-06T06:33:26.660Z,15.70
2019-03-06T06:35:56.026Z,18.40
2019-03-06T06:38:25.461Z,15.17
2019-03-06T06:40:54.966Z,15.23
2019-03-06T06:43:24.464Z,16.43
2019-03-06T06:45:53.922Z,13.90
2019-03-06T06:48:25.602Z,17.47
2019-03-06T06:51:01.586Z,15.13
2019-03-06T06:53:35.155Z,15.23
2019-03-06T06:56:24.275Z,13.73
2019-03-06T06:59:22.708Z,15.40
2019-03-06T07:02:05.792Z,14.63
2019-03-06T07:05:02.670Z,13.90
2019-03-06T07:07:33.756Z,17.90
2019-03-06T07:10:21.238Z,15.10
2019-03-06T07:12:55.189Z,14.37
2019-03-06T07:15:35.216Z,13.77
2019-03-06T07:18:15.118Z,16.00
2019-03-06T07:20:55.590Z,14.43
2019-03-06T07:23:44.172Z,13.37
2019-03-06T07:26:24.428Z,12.97
2019-03-06T07:28:55.522Z,11.67
2019-03-06T07:31:26.608Z,14.57
2019-03-06T07:33:57.802Z,13.87
2019-03-06T07:36:45.302Z,12.77
2019-03-06T07:39:22.165Z,12.80
2019-03-06T07:42:05.558Z,11.23
2019-03-06T07:44:48.787Z,12.67
2019-03-06T07:47:37.235Z,12.43
2019-03-06T07:50:14.125Z,12.20
2019-03-06T07:52:55.378Z,9.40
2019-03-06T07:55:32.304Z,13.18
2019-03-06T07:58:30.538Z,10.53
2019-03-06T08:01:00.005Z,9.27
2019-03-06T08:03:29.446Z,11.10
2019-03-06T08:05:58.899Z,11.97
2019-03-06T08:08:28.330Z,9.67
2019-03-06T08:10:58.555Z,11.00
2019-03-06T08:13:29.633Z,10.53
2019-03-06T08:16:00.802Z,11.07
2019-03-06T08:18:47.946Z,10.63
2019-03-06T08:21:29.119Z,13.10
2019-03-06T08:24:06.183Z,13.60
2019-03-06T08:26:35.721Z,13.53
2019-03-06T08:29:05.224Z,11.93
2019-03-06T08:31:39.068Z,11.97
2019-03-06T08:34:09.463Z,11.20
2019-03-06T08:36:39.010Z,12.10
2019-03-06T08:39:17.027Z,12.57
2019-03-06T08:41:46.701Z,9.93
2019-03-06T08:44:16.118Z,10.20
2019-03-06T08:46:50.049Z,11.00
2019-03-06T08:49:33.870Z,11.00
2019-03-06T08:52:11.126Z,10.37
2019-03-06T08:54:47.740Z,10.97
2019-03-06T08:57:24.618Z,10.03
2019-03-06T08:59:58.783Z,11.40
2019-03-06T09:02:38.812Z,11.93
2019-03-06T09:05:21.154Z,11.53
2019-03-06T09:07:52.756Z,10.87
2019-03-06T09:10:26.647Z,9.97
2019-03-06T09:13:00.400Z,11.47
2019-03-06T09:15:47.677Z,11.40
2019-03-06T09:18:25.026Z,11.47
2019-03-06T09:21:05.063Z,13.37
2019-03-06T09:23:38.700Z,12.00
2019-03-06T09:26:18.758Z,12.00
2019-03-06T09:28:50.010Z,11.53
2019-03-06T09:31:21.148Z,10.47
2019-03-06T09:33:53.497Z,11.80
2019-03-06T09:36:27.491Z,10.23
2019-03-06T09:39:13.645Z,10.80
2019-03-06T09:41:50.507Z,12.73
2019-03-06T09:44:30.969Z,11.90
2019-03-06T09:47:18.498Z,10.27
2019-03-06T09:49:55.264Z,11.10
2019-03-06T09:52:43.331Z,9.20
2019-03-06T09:55:29.338Z,11.67
2019-03-06T09:58:00.435Z,10.17
2019-03-06T10:00:37.481Z,9.50
2019-03-06T10:03:17.252Z,10.57
2019-03-06T10:05:51.693Z,10.33
2019-03-06T10:08:31.566Z,10.67
2019-03-06T10:11:02.645Z,11.63
2019-03-06T10:13:41.578Z,10.87
2019-03-06T10:16:12.525Z,10.90
2019-03-06T10:18:49.943Z,10.77
2019-03-06T10:21:19.443Z,10.57
2019-03-06T10:23:52.055Z,10.70
2019-03-06T10:26:21.827Z,10.43
2019-03-06T10:28:51.427Z,11.20
2019-03-06T10:31:21.139Z,12.53
2019-03-06T10:33:50.659Z,11.37
2019-03-06T10:36:20.100Z,11.07
2019-03-06T10:38:49.629Z,11.47
2019-03-06T10:41:19.253Z,11.97
2019-03-06T10:43:49.239Z,11.63
2019-03-06T10:46:19.420Z,11.17
2019-03-06T10:48:49.007Z,11.57
2019-03-06T10:51:18.897Z,12.57
2019-03-06T10:53:48.428Z,11.43
2019-03-06T10:56:18.055Z,11.67
2019-03-06T10:58:47.512Z,11.80
2019-03-06T11:01:17.328Z,11.87
2019-03-06T11:03:54.594Z,13.87
2019-03-06T11:06:25.355Z,12.00
2019-03-06T11:08:54.863Z,12.13
2019-03-06T11:11:24.464Z,11.90
2019-03-06T11:13:54.067Z,12.37
2019-03-06T11:16:23.577Z,12.27
2019-03-06T11:18:53.199Z,13.57
2019-03-06T11:21:22.725Z,12.63
2019-03-06T11:23:52.317Z,12.40
2019-03-06T11:26:21.980Z,13.67
2019-03-06T11:28:51.509Z,12.90
2019-03-06T11:31:21.311Z,13.07
2019-03-06T11:33:50.839Z,12.63
2019-03-06T11:36:20.705Z,13.47
2019-03-06T11:38:50.159Z,12.20
2019-03-06T11:41:19.676Z,12.47
2019-03-06T11:43:49.123Z,13.10
2019-03-06T11:46:19.535Z,12.47
2019-03-06T11:48:49.231Z,12.37
2019-03-06T11:51:18.862Z,13.10
2019-03-06T11:53:48.387Z,12.57
2019-03-06T11:56:19.760Z,11.97
2019-03-06T11:58:49.528Z,12.88
2019-03-06T12:01:20.855Z,13.70
2019-03-06T12:03:51.019Z,13.73
2019-03-06T12:06:20.525Z,13.33
2019-03-06T12:08:50.064Z,11.95
2019-03-06T12:11:19.731Z,12.67
2019-03-06T12:13:49.541Z,13.23
2019-03-06T12:16:19.853Z,14.03
2019-03-06T12:18:49.419Z,13.23
2019-03-06T12:21:18.996Z,13.00
2019-03-06T12:23:48.465Z,13.50
2019-03-06T12:26:17.959Z,13.07
2019-03-06T12:28:47.976Z,13.07
2019-03-06T12:31:17.407Z,12.68
2019-03-06T12:33:46.986Z,12.93
2019-03-06T12:36:16.431Z,12.53
2019-03-06T12:38:45.957Z,12.63
2019-03-06T12:41:17.187Z,12.87
2019-03-06T12:43:46.717Z,12.10
2019-03-06T12:46:23.619Z,13.53
2019-03-06T12:48:56.180Z,14.50
2019-03-06T12:51:25.810Z,12.33
2019-03-06T12:53:55.333Z,12.20
2019-03-06T12:56:24.853Z,11.87
2019-03-06T12:58:57.259Z,14.30
2019-03-06T13:01:26.705Z,12.33
2019-03-06T13:03:56.301Z,10.97
2019-03-06T13:06:25.996Z,12.03
2019-03-06T13:08:56.512Z,9.87
2019-03-06T13:11:26.109Z,12.30
2019-03-06T13:13:55.717Z,11.33
2019-03-06T13:16:25.568Z,9.07
2019-03-06T13:18:55.177Z,9.78
2019-03-06T13:21:24.712Z,11.25
2019-03-06T13:23:54.209Z,9.50
2019-03-06T13:26:23.676Z,11.13
2019-03-06T13:28:57.419Z,9.60
2019-03-06T13:31:24.262Z,11.47
2019-03-06T13:33:55.548Z,9.90
2019-03-06T13:36:25.232Z,9.03
2019-03-06T13:38:59.133Z,9.47
2019-03-06T13:41:26.718Z,9.07
2019-03-06T13:43:56.152Z,7.57
2019-03-06T13:46:25.736Z,8.77
2019-03-06T13:48:55.160Z,7.83
2019-03-06T13:51:24.692Z,7.03
2019-03-06T13:53:54.210Z,7.10
2019-03-06T13:56:23.827Z,9.53
2019-03-06T13:58:53.322Z,7.57
2019-03-06T14:01:23.151Z,7.67
2019-03-06T14:03:53.918Z,9.90
2019-03-06T14:06:23.408Z,8.20
2019-03-06T14:08:52.934Z,7.17
2019-03-06T14:11:22.724Z,6.87
2019-03-06T14:13:52.338Z,8.97
2019-03-06T14:16:22.044Z,5.90
2019-03-06T14:18:51.552Z,6.92
2019-03-06T14:21:21.932Z,6.40
2019-03-06T14:23:51.450Z,6.67
2019-03-06T14:26:24.035Z,5.85
2019-03-06T14:28:53.737Z,8.23
2019-03-06T14:31:23.302Z,6.25
2019-03-06T14:33:53.118Z,7.47
2019-03-06T14:36:22.677Z,7.17
2019-03-06T14:38:52.194Z,8.77
2019-03-06T14:41:21.878Z,6.87
2019-03-06T14:43:51.517Z,6.63
2019-03-06T14:46:22.014Z,5.05
2019-03-06T14:48:51.560Z,6.00
2019-03-06T14:51:21.136Z,5.97
2019-03-06T14:53:51.764Z,5.27
2019-03-06T14:56:21.192Z,7.00
2019-03-06T14:58:50.806Z,5.73
2019-03-06T15:01:20.224Z,4.57
2019-03-06T15:03:49.737Z,5.33
2019-03-06T15:06:19.357Z,6.53
2019-03-06T15:08:48.783Z,8.10
2019-03-06T15:11:18.504Z,6.53
2019-03-06T15:13:47.936Z,4.93
2019-03-06T15:16:17.397Z,5.00
2019-03-06T15:18:46.908Z,6.47
2019-03-06T15:21:16.435Z,5.63
2019-03-06T15:23:45.874Z,5.60
2019-03-06T15:26:15.675Z,4.37
2019-03-06T15:28:48.081Z,5.93
2019-03-06T15:31:17.413Z,5.10
2019-03-06T15:33:46.851Z,4.43
2019-03-06T15:36:16.446Z,4.87
2019-03-06T15:38:46.213Z,5.67
2019-03-06T15:41:15.691Z,5.40
2019-03-06T15:43:45.425Z,5.73
2019-03-06T15:46:15.018Z,5.97
2019-03-06T15:48:44.461Z,4.10
2019-03-06T15:51:14.006Z,4.83
2019-03-06T15:53:44.397Z,4.40
2019-03-06T15:56:15.068Z,4.37
2019-03-06T15:58:44.641Z,5.93
2019-03-06T16:01:14.119Z,4.13
2019-03-06T16:03:43.882Z,4.37
2019-03-06T16:06:20.379Z,6.87
2019-03-06T16:08:45.357Z,4.10
2019-03-06T16:11:14.800Z,5.43
2019-03-06T16:13:44.338Z,4.50
2019-03-06T16:16:14.622Z,6.33
2019-03-06T16:18:46.111Z,5.13
2019-03-06T16:21:15.622Z,5.40
2019-03-06T16:23:45.155Z,8.47
2019-03-06T16:26:15.204Z,5.23
2019-03-06T16:28:45.323Z,4.30
2019-03-06T16:31:16.160Z,5.93
2019-03-06T16:33:45.718Z,9.73
2019-03-06T16:36:15.890Z,7.20
2019-03-06T16:38:46.606Z,5.40
2019-03-06T16:41:16.051Z,5.27
2019-03-06T16:43:47.241Z,6.47
2019-03-06T16:46:16.903Z,6.10
2019-03-06T16:48:46.363Z,4.70
2019-03-06T16:51:16.851Z,6.73
2019-03-06T16:53:46.892Z,7.27
2019-03-06T16:56:16.986Z,6.70
2019-03-06T16:58:47.913Z,7.33
2019-03-06T17:01:17.987Z,4.73
2019-03-06T17:03:47.578Z,5.70
2019-03-06T17:06:18.497Z,4.80
2019-03-06T17:08:48.048Z,7.27
2019-03-06T17:11:18.183Z,9.38
2019-03-06T17:13:48.718Z,5.70
2019-03-06T17:16:18.504Z,5.87
2019-03-06T17:18:48.723Z,5.73
2019-03-06T17:21:21.511Z,5.87
2019-03-06T17:23:51.120Z,5.57
2019-03-06T17:26:22.536Z,4.47
2019-03-06T17:28:52.138Z,5.70
2019-03-06T17:31:21.648Z,5.90
2019-03-06T17:33:51.698Z,6.10
2019-03-06T17:36:21.987Z,6.37
2019-03-06T17:38:51.748Z,6.67
2019-03-06T17:41:22.050Z,5.03
2019-03-06T17:43:52.086Z,6.27
2019-03-06T17:46:22.272Z,6.03
2019-03-06T17:48:52.380Z,6.13
2019-03-06T17:51:22.512Z,9.47
2019-03-06T17:53:54.114Z,6.53
2019-03-06T17:56:23.625Z,5.17
2019-03-06T17:58:53.360Z,7.17
2019-03-06T18:01:23.427Z,4.87
2019-03-06T18:03:58.407Z,6.60
2019-03-06T18:06:28.690Z,5.60
2019-03-06T18:09:02.877Z,6.37
2019-03-06T18:11:33.955Z,5.23
2019-03-06T18:14:04.649Z,8.60
2019-03-06T18:16:37.287Z,5.73
2019-03-06T18:19:06.951Z,6.70
2019-03-06T18:21:38.246Z,8.47
2019-03-06T18:24:07.818Z,6.33
2019-03-06T18:26:42.438Z,6.83
2019-03-06T18:29:12.463Z,6.33
2019-03-06T18:31:42.085Z,7.10
2019-03-06T18:34:11.710Z,8.30
2019-03-06T18:36:41.263Z,7.33
2019-03-06T18:39:15.452Z,6.33
2019-03-06T18:41:44.897Z,7.10
2019-03-06T18:44:16.249Z,7.07
2019-03-06T18:46:46.058Z,8.70
2019-03-06T18:49:15.602Z,6.77
2019-03-06T18:51:48.343Z,6.97
2019-03-06T18:54:17.850Z,7.97
2019-03-06T18:56:51.095Z,5.50
2019-03-06T18:59:21.124Z,7.10
2019-03-06T19:01:52.122Z,5.40
2019-03-06T19:04:21.593Z,7.73
2019-03-06T19:06:52.232Z,6.57
2019-03-06T19:09:22.253Z,5.97
2019-03-06T19:11:55.412Z,7.27
2019-03-06T19:14:24.958Z,6.23
2019-03-06T19:16:57.703Z,7.93
2019-03-06T19:19:27.228Z,5.40
2019-03-06T19:21:58.762Z,5.13
2019-03-06T19:24:28.334Z,8.23
2019-03-06T19:26:58.462Z,6.10
2019-03-06T19:29:31.064Z,6.33
2019-03-06T19:32:00.650Z,5.30
2019-03-06T19:34:30.164Z,5.33
2019-03-06T19:36:59.847Z,5.30
2019-03-06T19:39:33.252Z,6.37
2019-03-06T19:42:03.997Z,5.03
2019-03-06T19:44:33.438Z,7.07
2019-03-06T19:47:05.000Z,8.03
2019-03-06T19:49:34.522Z,5.17
2019-03-06T19:52:06.886Z,4.97
2019-03-06T19:54:37.764Z,5.53
2019-03-06T19:57:08.872Z,6.53
2019-03-06T19:59:49.345Z,6.13
2019-03-06T20:02:20.730Z,8.23
2019-03-06T20:04:50.660Z,6.17
2019-03-06T20:07:21.405Z,9.03
2019-03-06T20:09:51.073Z,6.97
2019-03-06T20:12:22.254Z,5.67
2019-03-06T20:14:51.864Z,6.40
2019-03-06T20:17:22.329Z,5.27
2019-03-06T20:19:53.833Z,5.40
2019-03-06T20:22:24.221Z,6.57
2019-03-06T20:24:54.510Z,6.43
2019-03-06T20:27:24.123Z,5.47
2019-03-06T20:29:53.946Z,5.93
2019-03-06T20:32:23.482Z,5.83
2019-03-06T20:34:54.022Z,6.43
2019-03-06T20:37:23.596Z,6.97
2019-03-06T20:39:53.205Z,7.50
2019-03-06T20:42:23.863Z,5.57
2019-03-06T20:44:54.800Z,4.87
2019-03-06T20:47:24.260Z,6.70
2019-03-06T20:49:56.214Z,4.80
2019-03-06T20:52:28.019Z,5.37
2019-03-06T20:54:57.671Z,5.63
2019-03-06T20:57:27.628Z,4.73
2019-03-06T20:59:58.634Z,8.90
2019-03-06T21:02:28.183Z,5.23
2019-03-06T21:04:57.930Z,8.00
2019-03-06T21:07:27.476Z,5.13
2019-03-06T21:09:57.003Z,5.53
2019-03-06T21:12:27.130Z,5.20
2019-03-06T21:14:56.989Z,5.60
2019-03-06T21:17:26.501Z,5.60
2019-03-06T21:19:55.948Z,3.90
2019-03-06T21:22:25.787Z,5.53
2019-03-06T21:24:55.380Z,4.17
2019-03-06T21:27:24.812Z,5.83
2019-03-06T21:29:54.423Z,5.93
2019-03-06T21:32:23.886Z,5.50
2019-03-06T21:34:56.242Z,5.93
2019-03-06T21:37:25.684Z,5.07
2019-03-06T21:39:59.055Z,3.40
2019-03-06T21:42:28.644Z,5.30
2019-03-06T21:44:59.203Z,4.00
2019-03-06T21:47:28.845Z,6.40
2019-03-06T21:49:58.301Z,5.13
2019-03-06T21:52:28.862Z,4.97
2019-03-06T21:54:59.620Z,4.30
2019-03-06T21:57:29.109Z,4.87
2019-03-06T21:59:59.644Z,4.73
2019-03-06T22:02:29.089Z,5.93
2019-03-06T22:04:58.535Z,5.00
2019-03-06T22:07:28.053Z,5.73
2019-03-06T22:09:57.487Z,6.77
2019-03-06T22:12:26.939Z,4.50
2019-03-06T22:14:56.385Z,5.80
2019-03-06T22:17:25.855Z,4.93
2019-03-06T22:19:55.962Z,5.20
2019-03-06T22:22:25.484Z,5.07
2019-03-06T22:24:54.931Z,4.73
2019-03-06T22:27:24.372Z,3.62
2019-03-06T22:29:55.080Z,5.83
2019-03-06T22:32:24.530Z,5.40
2019-03-06T22:34:54.031Z,4.77
2019-03-06T22:37:23.553Z,5.57
2019-03-06T22:39:55.564Z,4.57
2019-03-06T22:42:25.095Z,4.20
2019-03-06T22:44:54.639Z,4.07
2019-03-06T22:47:24.165Z,6.40
2019-03-06T22:49:53.669Z,4.97
2019-03-06T22:52:23.257Z,4.40
2019-03-06T22:54:52.693Z,3.60
2019-03-06T22:57:22.135Z,5.83
2019-03-06T22:59:51.579Z,3.73
2019-03-06T23:02:23.271Z,4.13
2019-03-06T23:04:52.774Z,3.63
2019-03-06T23:07:22.295Z,6.40
2019-03-06T23:09:51.749Z,4.37
2019-03-06T23:12:21.267Z,4.17
2019-03-06T23:14:50.701Z,5.57
2019-03-06T23:17:22.185Z,4.20
2019-03-06T23:19:52.668Z,5.87
2019-03-06T23:22:22.127Z,4.20
2019-03-06T23:24:51.672Z,4.40
2019-03-06T23:27:21.171Z,6.67
2019-03-06T23:29:50.672Z,4.20
2019-03-06T23:32:20.130Z,4.40
2019-03-06T23:34:49.541Z,8.97
2019-03-06T23:37:18.983Z,4.23
2019-03-06T23:39:48.405Z,3.40
2019-03-06T23:42:17.925Z,3.43
2019-03-06T23:44:47.481Z,6.90
2019-03-06T23:47:17.031Z,5.50
2019-03-06T23:49:46.465Z,4.97
2019-03-06T23:52:20.481Z,3.73
2019-03-06T23:54:49.905Z,3.07
2019-03-06T23:57:19.407Z,5.17
2019-03-06T23:59:48.835Z,4.97
